Time;durP1;ratioP1;P1;durP2;ratioP2;P2;SDS_P1;SDS_P2;PMS_P1;PMS_P2;Temp;Humidity;BMP_temperature;BMP_pressure;BME280_temperature;BME280_humidity;BME280_pressure;Samples;Min_cycle;Max_cycle;Signal;HPM_P1;HPM_P2
2023/11/19 00:00:46;;;;;;;;;;;;;;;7.61;49.10;99039.78;5075378;28;19912;-78
2023/11/19 00:03:13;;;;;;;;;;;;;;;7.67;48.94;99046.16;5075382;28;19913;-78
2023/11/19 00:05:38;;;;;;;;;;;;;;;7.69;49.20;99062.56;5073981;28;19970;-78
2023/11/19 00:08:04;;;;;;;;;;;;;;;7.67;49.75;99055.84;5075308;28;20013;-77
2023/11/19 00:10:30;;;;;;;;;;;;;;;7.58;49.31;99044.56;5075303;28;20320;-77
2023/11/19 00:12:56;;;;;;;;;;;;;;;7.61;49.30;99045.03;5057079;28;20349;-77
2023/11/19 00:15:24;;;;;;;;;;;;;;;7.67;49.16;99059.31;5075100;28;19919;-77
2023/11/19 00:17:49;;;;;;;;;;;;;;;7.67;49.74;99063.75;5074802;28;19935;-77
2023/11/19 00:20:15;;;;;;;;;;;;;;;7.73;49.09;99058.63;5056887;28;19916;-78
2023/11/19 00:22:42;;;;;;;;;;;;;;;7.64;49.26;99072.78;5074844;28;19939;-77
2023/11/19 00:25:07;;;;;;;;;;;;;;;7.68;49.66;99073.25;5074752;28;19913;-78
2023/11/19 00:27:33;;;;;;;;;;;;;;;7.61;49.99;99089.69;5056844;28;19962;-78
2023/11/19 00:29:58;;;;;;;;;;;;;;;7.62;49.54;99072.94;5073372;28;19916;-78
2023/11/19 00:32:23;;;;;;;;;;;;;;;7.63;49.85;99090.34;5074744;28;19984;-77
2023/11/19 00:34:49;;;;;;;;;;;;;;;7.64;49.68;99073.59;5075046;28;19913;-78
2023/11/19 00:37:15;;;;;;;;;;;;;;;7.63;49.61;99076.41;5073466;28;19912;-78
2023/11/19 00:39:40;;;;;;;;;;;;;;;7.59;49.64;99086.44;5074695;28;19919;-78
2023/11/19 00:42:05;;;;;;;;;;;;;;;7.62;50.28;99099.22;5074589;28;19921;-78
2023/11/19 00:44:31;;;;;;;;;;;;;;;7.61;50.47;99094.13;5074500;28;19958;-77
2023/11/19 00:46:56;;;;;;;;;;;;;;;7.64;49.77;99099.88;5074535;28;19912;-78
2023/11/19 00:49:21;;;;;;;;;;;;;;;7.54;50.45;99096.63;5074487;28;20305;-78
2023/11/19 00:51:47;;;;;;;;;;;;;;;7.61;50.27;99105.47;5074493;28;19950;-77
2023/11/19 00:54:12;;;;;;;;;;;;;;;7.58;50.58;99105.81;5074317;28;19940;-77
2023/11/19 00:56:37;;;;;;;;;;;;;;;7.57;50.38;99114.69;5072883;28;19928;-77
2023/11/19 00:59:03;;;;;;;;;;;;;;;7.56;50.63;99097.28;5074546;28;19913;-78
2023/11/19 01:01:29;;;;;;;;;;;;;;;7.58;50.04;99126.00;5056428;28;19923;-77
2023/11/19 01:03:55;;;;;;;;;;;;;;;7.59;50.14;99122.38;5074295;28;19912;-77
2023/11/19 01:06:30;;;;;;;;;;;;;;;7.52;50.31;99118.81;5074167;28;19919;-78
2023/11/19 01:08:56;;;;;;;;;;;;;;;7.51;50.70;99125.84;5074278;28;19912;-78
2023/11/19 01:11:22;;;;;;;;;;;;;;;7.51;50.87;99111.91;5074245;28;19991;-78
2023/11/19 01:13:48;;;;;;;;;;;;;;;7.47;50.51;99119.31;5055972;28;19978;-78
2023/11/19 01:16:13;;;;;;;;;;;;;;;7.48;51.19;99110.44;5073995;28;20000;-78
2023/11/19 01:18:38;;;;;;;;;;;;;;;7.49;50.98;99112.06;5073560;28;19920;-78
2023/11/19 01:21:04;;;;;;;;;;;;;;;7.52;50.58;99113.53;5073668;28;20419;-77
2023/11/19 01:23:29;;;;;;;;;;;;;;;7.53;50.56;99129.13;5072771;28;19912;-77
2023/11/19 01:25:55;;;;;;;;;;;;;;;7.51;50.74;99119.78;5073695;28;20297;-77
2023/11/19 01:28:20;;;;;;;;;;;;;;;7.47;50.36;99119.31;5055579;28;19913;-77
2023/11/19 01:30:45;;;;;;;;;;;;;;;7.51;50.50;99125.84;5073428;28;19935;-77
2023/11/19 01:33:10;;;;;;;;;;;;;;;7.54;50.57;99127.34;5073608;28;20300;-77
2023/11/19 01:35:36;;;;;;;;;;;;;;;7.54;50.94;99136.03;5073638;28;19919;-77
2023/11/19 01:38:01;;;;;;;;;;;;;;;7.54;50.33;99130.78;5073594;28;20003;-77
2023/11/19 01:40:26;;;;;;;;;;;;;;;7.61;50.47;99130.91;5073429;28;19912;-77
2023/11/19 01:42:52;;;;;;;;;;;;;;;7.60;50.09;99150.31;5073449;28;19924;-78
2023/11/19 01:45:22;;;;;;;;;;;;;;;7.46;49.91;99122.09;5073652;28;20384;-78
2023/11/19 01:47:47;;;;;;;;;;;;;;;7.50;49.92;99126.03;5073573;28;20408;-77
2023/11/19 01:50:12;;;;;;;;;;;;;;;7.52;50.38;99126.69;5072084;28;19913;-78
2023/11/19 01:52:38;;;;;;;;;;;;;;;7.49;50.02;99117.31;5073535;28;20446;-78
2023/11/19 01:55:04;;;;;;;;;;;;;;;7.53;50.28;99117.81;5055276;28;19913;-78
2023/11/19 01:57:29;;;;;;;;;;;;;;;7.56;50.50;99101.72;5073451;28;20381;-77
2023/11/19 01:59:55;;;;;;;;;;;;;;;7.50;50.38;99103.22;5073076;28;19965;-77
2023/11/19 02:02:20;;;;;;;;;;;;;;;7.49;50.12;99117.31;5073016;28;20324;-78
2023/11/19 02:04:48;;;;;;;;;;;;;;;7.48;50.14;99102.56;5071782;28;19917;-78
2023/11/19 02:07:14;;;;;;;;;;;;;;;7.45;50.41;99107.31;5072665;28;19912;-77
2023/11/19 02:09:42;;;;;;;;;;;;;;;7.41;50.46;99111.25;5073318;28;19916;-78
2023/11/19 02:12:07;;;;;;;;;;;;;;;7.48;50.26;99113.06;5072903;28;19912;-77
2023/11/19 02:14:33;;;;;;;;;;;;;;;7.51;50.32;99125.03;5073397;28;19913;-77
2023/11/19 02:16:58;;;;;;;;;;;;;;;7.47;50.28;99115.84;5073192;28;20057;-78
2023/11/19 02:19:23;;;;;;;;;;;;;;;7.47;51.01;99114.06;5054660;28;19959;-78
2023/11/19 02:21:49;;;;;;;;;;;;;;;7.44;50.79;99119.63;5072784;28;19924;-77
2023/11/19 02:24:16;;;;;;;;;;;;;;;7.52;50.55;99110.91;5072788;28;19916;-78
2023/11/19 02:26:50;;;;;;;;;;;;;;;7.49;50.49;99117.31;5072783;28;19966;-77
2023/11/19 02:29:15;;;;;;;;;;;;;;;7.49;50.57;99119.97;5071419;28;19912;-77
2023/11/19 02:31:40;;;;;;;;;;;;;;;7.51;50.57;99122.41;5072643;28;20021;-78
2023/11/19 02:34:06;;;;;;;;;;;;;;;7.51;51.07;99130.28;5072421;28;19913;-77
2023/11/19 02:36:32;;;;;;;;;;;;;;;7.49;50.68;99133.09;5072660;28;19912;-78
2023/11/19 02:38:57;;;;;;;;;;;;;;;7.47;50.71;99137.69;5072645;28;19923;-78
2023/11/19 02:41:23;;;;;;;;;;;;;;;7.48;51.11;99147.22;5071038;28;19916;-76
2023/11/19 02:43:48;;;;;;;;;;;;;;;7.46;50.79;99151.81;5072242;28;19912;-78
2023/11/19 02:46:14;;;;;;;;;;;;;;;7.34;51.49;99135.56;5070776;28;20369;-78
2023/11/19 02:48:39;;;;;;;;;;;;;;;7.34;51.08;99138.19;5072251;28;19966;-78
2023/11/19 02:51:04;;;;;;;;;;;;;;;7.36;51.12;99124.88;5072079;28;19912;-78
2023/11/19 02:53:30;;;;;;;;;;;;;;;7.29;51.20;99132.63;5072055;28;19913;-78
2023/11/19 02:56:01;;;;;;;;;;;;;;;7.34;51.60;99134.75;5072124;28;19924;-77
2023/11/19 02:58:28;;;;;;;;;;;;;;;7.35;51.05;99139.00;5072061;28;19969;-77
2023/11/19 03:00:57;;;;;;;;;;;;;;;7.34;51.38;99135.56;5072110;28;19919;-78
2023/11/19 03:03:37;;;;;;;;;;;;;;;7.35;51.53;99133.75;5072008;28;19912;-78
2023/11/19 03:06:05;;;;;;;;;;;;;;;7.31;51.14;99130.63;5071935;28;20037;-78
2023/11/19 03:08:30;;;;;;;;;;;;;;;7.34;51.19;99127.69;5071860;28;19921;-78
2023/11/19 03:10:56;;;;;;;;;;;;;;;7.29;51.74;99135.25;5072013;28;19916;-78
2023/11/19 03:13:21;;;;;;;;;;;;;;;7.21;52.09;99126.56;5072113;28;19919;-77
2023/11/19 03:15:47;;;;;;;;;;;;;;;7.26;51.52;99126.88;5071752;28;19916;-78
2023/11/19 03:18:12;;;;;;;;;;;;;;;7.22;52.49;99125.56;5070976;28;19920;-77
2023/11/19 03:20:37;;;;;;;;;;;;;;;7.23;51.59;99121.97;5071798;28;19912;-78
2023/11/19 03:23:03;;;;;;;;;;;;;;;7.21;52.28;99118.69;5070499;28;19989;-77
2023/11/19 03:25:33;;;;;;;;;;;;;;;7.27;51.54;99113.56;5071701;28;19913;-78
2023/11/19 03:27:59;;;;;;;;;;;;;;;7.27;52.11;99112.75;5053962;28;19986;-78
2023/11/19 03:30:24;;;;;;;;;;;;;;;7.22;52.11;99104.56;5071635;28;20373;-77
2023/11/19 03:32:50;;;;;;;;;;;;;;;7.22;52.35;99101.94;5070372;28;19952;-77
2023/11/19 03:35:15;;;;;;;;;;;;;;;7.17;52.07;99091.13;5070365;28;19923;-78
2023/11/19 03:37:40;;;;;;;;;;;;;;;7.14;52.59;99101.97;5071700;28;19913;-77
2023/11/19 03:40:06;;;;;;;;;;;;;;;7.19;52.34;99115.41;5071523;28;20000;-78
2023/11/19 03:42:31;;;;;;;;;;;;;;;7.22;52.29;99117.69;5071562;28;20002;-78
2023/11/19 03:44:56;;;;;;;;;;;;;;;7.26;51.42;99111.94;5071844;28;19912;-78
2023/11/19 03:47:22;;;;;;;;;;;;;;;7.15;51.67;99135.09;5070414;28;19908;-77
2023/11/19 03:49:50;;;;;;;;;;;;;;;7.14;52.27;99134.28;5054045;28;19913;-76
2023/11/19 03:52:16;;;;;;;;;;;;;;;7.21;52.01;99134.44;5071680;28;19916;-78
2023/11/19 03:54:42;;;;;;;;;;;;;;;7.24;52.04;99132.28;5071574;28;19966;-77
2023/11/19 03:57:07;;;;;;;;;;;;;;;7.23;51.68;99142.97;5071743;28;19913;-77
2023/11/19 03:59:33;;;;;;;;;;;;;;;7.21;52.23;99142.31;5071535;28;19927;-77
2023/11/19 04:02:00;;;;;;;;;;;;;;;7.21;52.10;99148.38;5071452;28;20320;-77
2023/11/19 04:04:25;;;;;;;;;;;;;;;7.15;51.65;99130.66;5071468;28;20007;-77
2023/11/19 04:06:51;;;;;;;;;;;;;;;7.20;52.07;99122.28;5053404;28;20437;-78
2023/11/19 04:09:16;;;;;;;;;;;;;;;7.20;51.94;99154.63;5071419;28;19935;-78
2023/11/19 04:11:41;;;;;;;;;;;;;;;7.11;52.43;99152.16;5071107;28;19991;-78
2023/11/19 04:14:09;;;;;;;;;;;;;;;7.21;51.53;99155.44;5070355;28;20313;-77
2023/11/19 04:16:35;;;;;;;;;;;;;;;7.26;51.43;99161.81;5071241;28;19913;-78
2023/11/19 04:19:01;;;;;;;;;;;;;;;7.20;51.21;99175.63;5071289;28;19921;-78
2023/11/19 04:21:26;;;;;;;;;;;;;;;7.27;51.94;99181.03;5071161;28;19947;-77
2023/11/19 04:23:52;;;;;;;;;;;;;;;7.23;51.15;99198.91;5071518;28;19912;-78
2023/11/19 04:26:17;;;;;;;;;;;;;;;7.18;51.88;99198.59;5071247;28;19962;-77
2023/11/19 04:28:42;;;;;;;;;;;;;;;7.21;51.13;99205.31;5071135;28;19912;-77
2023/11/19 04:31:09;;;;;;;;;;;;;;;7.24;51.81;99212.88;5074241;28;19944;-77
2023/11/19 04:33:34;;;;;;;;;;;;;;;7.26;51.43;99219.59;5073539;28;20336;-77
2023/11/19 04:35:59;;;;;;;;;;;;;;;7.26;51.55;99218.78;5074981;28;19927;-77
2023/11/19 04:38:26;;;;;;;;;;;;;;;7.26;51.08;99234.53;5074729;28;19948;-77
2023/11/19 04:40:51;;;;;;;;;;;;;;;7.23;51.90;99235.69;5074802;28;19912;-78
2023/11/19 04:43:17;;;;;;;;;;;;;;;7.18;51.67;99240.59;5074710;28;20007;-78
2023/11/19 04:45:42;;;;;;;;;;;;;;;7.17;51.85;99243.41;5074800;28;19912;-78
2023/11/19 04:48:09;;;;;;;;;;;;;;;7.24;51.97;99249.63;5074543;28;19919;-77
2023/11/19 04:50:34;;;;;;;;;;;;;;;7.13;51.97;99247.34;5074443;28;19913;-77
2023/11/19 04:52:59;;;;;;;;;;;;;;;7.09;52.02;99259.97;5074404;28;19913;-78
2023/11/19 04:55:25;;;;;;;;;;;;;;;7.01;51.84;99255.53;5074212;28;20007;-76
2023/11/19 04:57:50;;;;;;;;;;;;;;;7.05;51.83;99271.78;5072953;28;19912;-78
2023/11/19 05:00:15;;;;;;;;;;;;;;;7.01;52.59;99268.66;5074427;28;19916;-76
2023/11/19 05:02:40;;;;;;;;;;;;;;;7.08;52.23;99273.25;5074181;28;20011;-78
2023/11/19 05:05:06;;;;;;;;;;;;;;;6.95;52.32;99261.41;5074346;28;19956;-77
2023/11/19 05:07:31;;;;;;;;;;;;;;;6.91;52.44;99286.34;5074129;28;19966;-78
2023/11/19 05:09:56;;;;;;;;;;;;;;;7.08;51.99;99304.75;5072708;28;19970;-77
2023/11/19 05:12:23;;;;;;;;;;;;;;;7.08;51.36;99289.00;5073941;28;19970;-78
2023/11/19 05:14:50;;;;;;;;;;;;;;;7.11;51.96;99307.06;5074129;28;19916;-77
2023/11/19 05:17:18;;;;;;;;;;;;;;;7.12;51.37;99314.75;5056642;28;19963;-78
2023/11/19 05:19:44;;;;;;;;;;;;;;;7.13;51.89;99305.91;5073783;28;19920;-78
2023/11/19 05:22:09;;;;;;;;;;;;;;;7.22;51.41;99325.13;5073812;28;19973;-78
2023/11/19 05:24:35;;;;;;;;;;;;;;;7.28;51.30;99324.47;5073938;28;19912;-78
2023/11/19 05:27:01;;;;;;;;;;;;;;;7.29;50.65;99315.59;5074021;28;19913;-77
2023/11/19 05:29:27;;;;;;;;;;;;;;;7.33;51.48;99317.75;5074135;28;20428;-78
2023/11/19 05:31:52;;;;;;;;;;;;;;;7.34;51.28;99321.19;5073610;28;19912;-78
2023/11/19 05:34:17;;;;;;;;;;;;;;;7.39;51.00;99318.09;5073734;28;19912;-77
2023/11/19 05:36:43;;;;;;;;;;;;;;;7.48;50.98;99323.22;5074097;28;20003;-77
2023/11/19 05:39:08;;;;;;;;;;;;;;;7.48;50.77;99332.91;5073754;28;19912;-77
2023/11/19 05:41:33;;;;;;;;;;;;;;;7.45;50.51;99333.22;5072823;28;20355;-76
2023/11/19 05:43:59;;;;;;;;;;;;;;;7.41;50.57;99337.13;5073430;28;19955;-77
2023/11/19 05:46:26;;;;;;;;;;;;;;;7.36;51.10;99334.97;5055337;28;19956;-78
2023/11/19 05:48:52;;;;;;;;;;;;;;;7.27;51.20;99343.84;5073348;28;19919;-77
2023/11/19 05:51:17;;;;;;;;;;;;;;;7.32;51.31;99349.44;5073150;28;19999;-77
2023/11/19 05:53:43;;;;;;;;;;;;;;;7.32;50.71;99342.38;5073274;28;19912;-77
2023/11/19 05:56:09;;;;;;;;;;;;;;;7.28;50.50;99355.97;5073091;28;19955;-78
2023/11/19 05:58:35;;;;;;;;;;;;;;;7.30;50.71;99359.28;5073270;28;19912;-77
2023/11/19 06:01:01;;;;;;;;;;;;;;;7.34;51.06;99368.47;5073199;28;19912;-77
2023/11/19 06:03:26;;;;;;;;;;;;;;;7.31;50.71;99360.91;5073105;28;20007;-78
2023/11/19 06:05:51;;;;;;;;;;;;;;;7.30;50.75;99365.34;5055148;28;20373;-78
2023/11/19 06:08:17;;;;;;;;;;;;;;;7.31;50.76;99381.94;5072983;28;19916;-77
2023/11/19 06:10:43;;;;;;;;;;;;;;;7.32;51.04;99367.81;5072981;28;19912;-78
2023/11/19 06:13:10;;;;;;;;;;;;;;;7.37;50.82;99372.56;5054969;28;19913;-78
2023/11/19 06:15:36;;;;;;;;;;;;;;;7.41;50.22;99377.34;5072850;28;19913;-78
2023/11/19 06:18:03;;;;;;;;;;;;;;;7.38;50.69;99393.44;5072620;28;20321;-77
2023/11/19 06:20:29;;;;;;;;;;;;;;;7.40;50.45;99383.59;5072653;28;19912;-77
2023/11/19 06:22:54;;;;;;;;;;;;;;;7.43;50.86;99391.16;5071262;28;19940;-76
2023/11/19 06:25:19;;;;;;;;;;;;;;;7.44;50.11;99379.69;5072606;28;20000;-78
2023/11/19 06:27:45;;;;;;;;;;;;;;;7.44;50.52;99392.81;5072527;28;19917;-77
2023/11/19 06:30:11;;;;;;;;;;;;;;;7.49;50.06;99385.25;5072333;28;19920;-78
2023/11/19 06:32:37;;;;;;;;;;;;;;;7.52;50.55;99384.94;5054310;28;19916;-76
2023/11/19 06:35:04;;;;;;;;;;;;;;;7.49;50.00;99379.19;5072874;28;19919;-78
2023/11/19 06:37:29;;;;;;;;;;;;;;;7.50;50.16;99380.84;5054520;28;19919;-78
2023/11/19 06:39:55;;;;;;;;;;;;;;;7.50;49.87;99381.66;5072225;28;19916;-77
2023/11/19 06:42:20;;;;;;;;;;;;;;;7.58;49.83;99397.44;5072060;28;19944;-78
2023/11/19 06:44:45;;;;;;;;;;;;;;;7.56;49.56;99399.41;5072306;28;19916;-77
2023/11/19 06:47:11;;;;;;;;;;;;;;;7.61;49.45;99399.72;5072282;28;19927;-77
2023/11/19 06:49:36;;;;;;;;;;;;;;;7.56;49.50;99409.91;5072217;28;19919;-78
2023/11/19 06:52:02;;;;;;;;;;;;;;;7.66;49.87;99404.50;5072187;28;19912;-78
2023/11/19 06:54:27;;;;;;;;;;;;;;;7.73;50.13;99402.88;5071918;28;19909;-77
2023/11/19 06:56:52;;;;;;;;;;;;;;;7.74;49.67;99399.25;5072295;28;19965;-78
2023/11/19 06:59:18;;;;;;;;;;;;;;;7.80;49.63;99408.28;5072048;28;19912;-78
2023/11/19 07:01:44;;;;;;;;;;;;;;;7.87;49.67;99398.75;5072059;28;19992;-77
2023/11/19 07:04:12;;;;;;;;;;;;;;;7.94;49.58;99403.19;5054445;28;19919;-78
2023/11/19 07:06:38;;;;;;;;;;;;;;;7.84;49.31;99404.34;5071981;28;19912;-78
2023/11/19 07:09:09;;;;;;;;;;;;;;;7.92;49.18;99402.53;5054037;28;20304;-77
2023/11/19 07:11:41;;;;;;;;;;;;;;;7.95;48.35;99419.78;5071906;28;19919;-78
2023/11/19 07:14:07;;;;;;;;;;;;;;;7.97;48.80;99423.91;5053811;28;19912;-78
2023/11/19 07:16:34;;;;;;;;;;;;;;;7.99;48.34;99402.69;5053724;28;19919;-78
2023/11/19 07:18:59;;;;;;;;;;;;;;;7.94;48.99;99432.13;5071423;28;19920;-78
2023/11/19 07:21:25;;;;;;;;;;;;;;;7.92;48.55;99404.34;5071606;28;20304;-77
2023/11/19 07:23:51;;;;;;;;;;;;;;;8.00;49.20;99399.09;5071699;28;20400;-77
2023/11/19 07:26:17;;;;;;;;;;;;;;;7.94;48.72;99390.06;5071823;28;19912;-78
2023/11/19 07:28:44;;;;;;;;;;;;;;;8.06;48.40;99382.66;5071694;28;20428;-77
2023/11/19 07:31:09;;;;;;;;;;;;;;;8.06;48.68;99390.53;5071791;28;19928;-77
2023/11/19 07:33:35;;;;;;;;;;;;;;;7.96;48.32;99392.50;5071569;28;20286;-78
2023/11/19 07:36:01;;;;;;;;;;;;;;;7.99;48.84;99379.03;5070160;28;20034;-79
2023/11/19 07:38:26;;;;;;;;;;;;;;;8.06;48.78;99401.06;5070289;28;20332;-78
2023/11/19 07:40:51;;;;;;;;;;;;;;;8.07;48.20;99407.97;5071681;28;20331;-78
2023/11/19 07:43:16;;;;;;;;;;;;;;;8.13;48.44;99404.66;5071507;28;19916;-77
2023/11/19 07:45:44;;;;;;;;;;;;;;;8.18;48.75;99426.06;5071501;28;20438;-78
2023/11/19 07:48:10;;;;;;;;;;;;;;;8.18;48.50;99407.66;5071579;28;19913;-78
2023/11/19 07:50:36;;;;;;;;;;;;;;;8.26;48.03;99394.50;5070193;28;19919;-77
2023/11/19 07:53:04;;;;;;;;;;;;;;;8.25;48.20;99406.00;5071425;28;19916;-77
2023/11/19 07:55:29;;;;;;;;;;;;;;;8.32;47.61;99407.97;5071338;28;20308;-78
2023/11/19 07:57:54;;;;;;;;;;;;;;;8.32;47.41;99427.19;5071324;28;19995;-77
2023/11/19 08:00:20;;;;;;;;;;;;;;;8.32;47.70;99414.03;5071473;28;19913;-77
2023/11/19 08:02:45;;;;;;;;;;;;;;;8.42;47.25;99424.41;5071336;28;20339;-77
2023/11/19 08:05:11;;;;;;;;;;;;;;;8.42;47.32;99427.88;5073175;28;19999;-78
2023/11/19 08:07:36;;;;;;;;;;;;;;;8.39;47.09;99437.91;5075239;28;19964;-76
2023/11/19 08:10:02;;;;;;;;;;;;;;;8.47;47.32;99453.69;5075306;28;19963;-78
2023/11/19 08:12:27;;;;;;;;;;;;;;;8.43;46.79;99491.84;5075212;28;19919;-77
2023/11/19 08:14:52;;;;;;;;;;;;;;;8.51;46.75;99452.34;5073944;28;19913;-78
2023/11/19 08:17:18;;;;;;;;;;;;;;;8.55;46.31;99458.94;5075036;28;19913;-77
2023/11/19 08:19:43;;;;;;;;;;;;;;;8.48;46.53;99471.94;5074756;28;19920;-77
2023/11/19 08:22:09;;;;;;;;;;;;;;;8.62;46.64;99469.59;5074993;28;19917;-77
2023/11/19 08:24:35;;;;;;;;;;;;;;;8.60;46.42;99477.66;5074845;28;19920;-78
2023/11/19 08:27:00;;;;;;;;;;;;;;;8.65;46.35;99471.91;5056762;28;19913;-78
2023/11/19 08:29:27;;;;;;;;;;;;;;;8.62;46.21;99485.41;5056658;28;19924;-78
2023/11/19 08:31:52;;;;;;;;;;;;;;;8.65;46.35;99499.03;5074643;28;19919;-77
2023/11/19 08:34:17;;;;;;;;;;;;;;;8.72;46.33;99492.13;5073200;28;19995;-78
2023/11/19 08:36:42;;;;;;;;;;;;;;;8.76;45.82;99492.63;5074537;28;20332;-78
2023/11/19 08:39:08;;;;;;;;;;;;;;;8.82;46.18;99474.34;5074612;28;19966;-77
2023/11/19 08:41:34;;;;;;;;;;;;;;;8.85;45.97;99479.25;5074665;28;19959;-77
2023/11/19 08:43:59;;;;;;;;;;;;;;;8.83;45.43;99475.16;5074676;28;19974;-78
2023/11/19 08:46:26;;;;;;;;;;;;;;;8.88;45.47;99476.28;5074723;28;20416;-77
2023/11/19 08:48:51;;;;;;;;;;;;;;;8.95;45.44;99484.38;5074791;28;19912;-78
2023/11/19 08:51:16;;;;;;;;;;;;;;;9.02;44.84;99489.78;5074532;28;20358;-77
2023/11/19 08:53:42;;;;;;;;;;;;;;;9.06;44.94;99483.19;5074583;28;19912;-77
2023/11/19 08:56:07;;;;;;;;;;;;;;;9.13;44.81;99481.50;5074212;28;19924;-76
2023/11/19 08:58:33;;;;;;;;;;;;;;;9.13;44.57;99492.03;5073051;28;20035;-78
2023/11/19 09:00:58;;;;;;;;;;;;;;;9.18;44.60;99484.47;5074442;28;19913;-77
2023/11/19 09:03:25;;;;;;;;;;;;;;;9.28;44.81;99506.16;5074311;28;20301;-78
2023/11/19 09:05:51;;;;;;;;;;;;;;;9.17;44.35;99495.97;5074428;28;20391;-78
2023/11/19 09:08:16;;;;;;;;;;;;;;;9.27;44.85;99499.25;5074071;28;19916;-77
2023/11/19 09:10:42;;;;;;;;;;;;;;;9.28;44.33;99505.31;5073982;28;19913;-77
2023/11/19 09:13:07;;;;;;;;;;;;;;;9.31;44.35;99508.44;5055861;28;20003;-76
2023/11/19 09:15:33;;;;;;;;;;;;;;;9.33;44.62;99503.81;5073550;28;19916;-77
2023/11/19 09:17:58;;;;;;;;;;;;;;;9.46;44.28;99508.53;5072996;28;19920;-77
2023/11/19 09:20:24;;;;;;;;;;;;;;;9.51;44.15;99498.31;5073810;28;19942;-77
2023/11/19 09:22:49;;;;;;;;;;;;;;;9.50;44.06;99492.22;5055791;28;19923;-77
2023/11/19 09:25:17;;;;;;;;;;;;;;;9.67;44.30;99476.34;5073841;28;19942;-77
2023/11/19 09:27:45;;;;;;;;;;;;;;;9.70;44.13;99479.44;5073744;28;19913;-78
2023/11/19 09:30:10;;;;;;;;;;;;;;;9.81;43.23;99470.31;5073943;28;19913;-77
2023/11/19 09:32:37;;;;;;;;;;;;;;;9.80;43.05;99474.78;5073773;28;19921;-77
2023/11/19 09:35:03;;;;;;;;;;;;;;;9.76;43.14;99468.22;5073732;28;19919;-78
2023/11/19 09:37:28;;;;;;;;;;;;;;;9.74;43.08;99454.38;5073703;28;20317;-78
2023/11/19 09:39:53;;;;;;;;;;;;;;;9.75;43.39;99460.47;5073422;28;19958;-78
2023/11/19 09:42:19;;;;;;;;;;;;;;;9.82;42.38;99456.97;5073210;28;19924;-78
2023/11/19 09:44:44;;;;;;;;;;;;;;;9.92;43.08;99462.00;5073349;28;20013;-78
2023/11/19 09:47:11;;;;;;;;;;;;;;;9.98;42.36;99492.94;5073470;28;20385;-79
2023/11/19 09:49:36;;;;;;;;;;;;;;;9.97;42.77;99469.38;5073374;28;19916;-77
2023/11/19 09:52:02;;;;;;;;;;;;;;;10.02;42.49;99475.78;5073217;28;20408;-78
2023/11/19 09:54:28;;;;;;;;;;;;;;;9.95;42.50;99477.47;5071790;28;19917;-77
2023/11/19 09:56:54;;;;;;;;;;;;;;;10.07;42.09;99473.44;5073201;28;19919;-78
2023/11/19 09:59:19;;;;;;;;;;;;;;;10.06;42.27;99477.06;5055242;28;19999;-78
2023/11/19 10:01:45;;;;;;;;;;;;;;;10.18;42.34;99472.19;5072989;28;20007;-77
2023/11/19 10:04:13;;;;;;;;;;;;;;;10.22;42.58;99484.06;5072946;28;19920;-78
2023/11/19 10:06:38;;;;;;;;;;;;;;;10.10;42.36;99485.44;5072772;28;19913;-78
2023/11/19 10:09:05;;;;;;;;;;;;;;;10.14;41.40;99482.28;5072792;28;19943;-77
2023/11/19 10:11:30;;;;;;;;;;;;;;;10.18;42.07;99480.94;5071736;28;19939;-78
2023/11/19 10:13:56;;;;;;;;;;;;;;;10.26;42.51;99485.34;5072942;28;20440;-77
2023/11/19 10:16:27;;;;;;;;;;;;;;;10.30;41.99;99480.53;5072618;28;19935;-77
2023/11/19 10:18:53;;;;;;;;;;;;;;;10.21;42.72;99481.59;5054451;28;19927;-78
2023/11/19 10:21:18;;;;;;;;;;;;;;;10.23;41.50;99475.16;5071456;28;19913;-76
2023/11/19 10:23:51;;;;;;;;;;;;;;;10.27;41.46;99505.47;5072642;28;20487;-76
2023/11/19 10:26:17;;;;;;;;;;;;;;;10.23;41.83;99490.16;5072775;28;20378;-77
2023/11/19 10:28:45;;;;;;;;;;;;;;;10.16;41.01;99479.47;5072463;28;20003;-75
2023/11/19 10:31:12;;;;;;;;;;;;;;;10.16;41.34;99487.38;5072608;28;19912;-77
2023/11/19 10:33:38;;;;;;;;;;;;;;;10.17;41.83;99487.19;5054575;28;20313;-76
2023/11/19 10:36:03;;;;;;;;;;;;;;;10.27;40.39;99488.81;5072477;28;19919;-77
2023/11/19 10:38:29;;;;;;;;;;;;;;;10.29;41.61;99497.38;5072448;28;19919;-78
2023/11/19 10:40:54;;;;;;;;;;;;;;;10.32;40.68;99500.47;5071834;28;19967;-78
2023/11/19 10:43:22;;;;;;;;;;;;;;;10.26;40.17;99493.28;5070434;28;20453;-77
2023/11/19 10:45:47;;;;;;;;;;;;;;;10.28;41.25;99504.47;5090581;28;19916;-77
2023/11/19 10:48:12;;;;;;;;;;;;;;;10.23;40.65;99504.19;5092489;28;20018;-78
2023/11/19 10:50:39;;;;;;;;;;;;;;;10.31;40.96;99498.84;5092531;28;20323;-77
2023/11/19 10:53:04;;;;;;;;;;;;;;;10.38;41.22;99502.41;5091420;28;19918;-78
2023/11/19 10:55:31;;;;;;;;;;;;;;;10.41;41.20;99495.97;5092235;28;19912;-77
2023/11/19 10:58:01;;;;;;;;;;;;;;;10.37;40.15;99495.47;5092455;28;20315;-77
2023/11/19 11:00:28;;;;;;;;;;;;;;;10.35;40.97;99489.56;5093228;28;19916;-77
2023/11/19 11:02:56;;;;;;;;;;;;;;;10.37;41.31;99481.47;5093160;28;20376;-77
2023/11/19 11:05:22;;;;;;;;;;;;;;;10.37;40.56;99479.66;5074440;28;20401;-78
2023/11/19 11:07:49;;;;;;;;;;;;;;;10.31;40.33;99477.72;5092419;28;19954;-77
2023/11/19 11:10:16;;;;;;;;;;;;;;;10.36;40.81;99474.56;5092480;28;19912;-78
2023/11/19 11:12:44;;;;;;;;;;;;;;;10.35;41.07;99472.91;5092778;28;19935;-77
2023/11/19 11:15:12;;;;;;;;;;;;;;;10.43;40.91;99492.16;5092060;28;19919;-78
2023/11/19 11:17:39;;;;;;;;;;;;;;;10.40;40.28;99495.16;5091826;28;19919;-78
2023/11/19 11:20:05;;;;;;;;;;;;;;;10.41;40.08;99469.59;5091908;28;19972;-78
2023/11/19 11:22:36;;;;;;;;;;;;;;;10.47;40.78;99467.06;5091881;28;19916;-78
2023/11/19 11:25:18;;;;;;;;;;;;;;;10.49;40.67;99459.78;5091879;28;19912;-78
2023/11/19 11:28:04;;;;;;;;;;;;;;;10.53;40.69;99470.78;5092298;28;19912;-77
2023/11/19 11:30:46;;;;;;;;;;;;;;;10.52;40.39;99477.06;5073617;28;19921;-78
2023/11/19 11:33:20;;;;;;;;;;;;;;;10.53;40.66;99462.06;5092160;28;19965;-77
2023/11/19 11:36:06;;;;;;;;;;;;;;;10.54;40.44;99472.44;5092120;28;19919;-79
2023/11/19 11:38:37;;;;;;;;;;;;;;;10.53;40.29;99465.50;5091271;28;19912;-78
2023/11/19 11:41:15;;;;;;;;;;;;;;;10.49;40.90;99465.06;5091671;28;19943;-79
2023/11/19 11:43:43;;;;;;;;;;;;;;;10.41;40.46;99457.22;5073629;28;19917;-77
2023/11/19 11:46:09;;;;;;;;;;;;;;;10.44;39.77;99461.31;5091820;28;19912;-75
2023/11/19 11:48:34;;;;;;;;;;;;;;;10.47;40.89;99464.41;5091848;28;19912;-78
2023/11/19 11:50:59;;;;;;;;;;;;;;;10.46;40.32;99462.78;5091616;28;19912;-75
2023/11/19 11:53:25;;;;;;;;;;;;;;;10.47;40.35;99467.06;5091686;28;19912;-78
2023/11/19 11:55:51;;;;;;;;;;;;;;;10.50;40.69;99464.06;5091247;28;19943;-78
2023/11/19 11:58:23;;;;;;;;;;;;;;;10.51;39.68;99462.22;5091481;28;19962;-78
2023/11/19 12:00:48;;;;;;;;;;;;;;;10.46;39.87;99461.94;5091652;28;19912;-77
2023/11/19 12:03:14;;;;;;;;;;;;;;;10.42;40.65;99458.03;5091446;28;20357;-78
2023/11/19 12:05:46;;;;;;;;;;;;;;;10.52;40.63;99455.97;5073417;28;19920;-77
2023/11/19 12:08:14;;;;;;;;;;;;;;;10.46;40.28;99452.22;5091452;28;19990;-78
2023/11/19 12:10:50;;;;;;;;;;;;;;;10.51;40.82;99438.47;5091411;28;19912;-78
2023/11/19 12:13:19;;;;;;;;;;;;;;;10.50;40.48;99426.28;5091205;28;20015;-78
2023/11/19 12:15:56;;;;;;;;;;;;;;;10.51;40.77;99417.34;5091409;28;19947;-77
2023/11/19 12:18:31;;;;;;;;;;;;;;;10.51;39.85;99420.00;5073126;28;19985;-78
2023/11/19 12:20:57;;;;;;;;;;;;;;;10.46;39.97;99412.63;5091420;28;19912;-78
2023/11/19 12:23:23;;;;;;;;;;;;;;;10.39;40.28;99395.84;5091398;28;20313;-78
2023/11/19 12:25:49;;;;;;;;;;;;;;;10.46;40.86;99411.81;5091440;28;19912;-77
2023/11/19 12:28:17;;;;;;;;;;;;;;;10.46;40.51;99404.69;5091610;28;19918;-78
2023/11/19 12:30:42;;;;;;;;;;;;;;;10.47;40.38;99403.69;5073221;28;20385;-77
2023/11/19 12:33:11;;;;;;;;;;;;;;;10.46;40.04;99403.88;5073118;28;19919;-78
2023/11/19 12:35:40;;;;;;;;;;;;;;;10.48;40.42;99388.69;5091376;28;19950;-77
2023/11/19 12:38:05;;;;;;;;;;;;;;;10.50;40.14;99400.69;5073199;28;19912;-78
2023/11/19 12:40:31;;;;;;;;;;;;;;;10.47;40.73;99392.31;5073008;28;19919;-78
2023/11/19 12:42:57;;;;;;;;;;;;;;;10.49;40.62;99398.25;5091170;28;19916;-78
2023/11/19 12:45:23;;;;;;;;;;;;;;;10.52;39.99;99395.25;5091216;28;19912;-78
2023/11/19 12:47:51;;;;;;;;;;;;;;;10.53;40.42;99406.63;5091150;28;19919;-78
2023/11/19 12:50:19;;;;;;;;;;;;;;;10.49;40.14;99392.97;5073313;28;20400;-78